Time;durP1;ratioP1;P1;durP2;ratioP2;P2;SDS_P1;SDS_P2;PMS_P1;PMS_P2;Temp;Humidity;BMP_temperature;BMP_pressure;BME280_temperature;BME280_humidity;BME280_pressure;Samples;Min_cycle;Max_cycle;Signal;HPM_P1;HPM_P2
2022/01/23 00:00:17;;;;;;;;;;;;;;;5.35;100.00;103518.84;5093571;28;19920;-79
2022/01/23 00:02:49;;;;;;;;;;;;;;;5.33;100.00;103509.97;5097419;28;19982;-79
2022/01/23 00:05:14;;;;;;;;;;;;;;;5.35;100.00;103507.50;5064699;28;19935;-80
2022/01/23 00:07:41;;;;;;;;;;;;;;;5.36;100.00;103515.50;5059583;28;19920;-80
2022/01/23 00:10:09;;;;;;;;;;;;;;;5.37;100.00;103512.09;5059346;28;19959;-80
2022/01/23 00:12:43;;;;;;;;;;;;;;;5.34;100.00;103501.31;5069057;28;19916;-79
2022/01/23 00:17:52;;;;;;;;;;;;;;;5.37;100.00;103512.09;5077337;28;19931;-79
2022/01/23 00:20:17;;;;;;;;;;;;;;;5.35;100.00;103516.25;5073321;28;19923;-79
2022/01/23 00:22:50;;;;;;;;;;;;;;;5.30;100.00;103501.81;5078635;28;19920;-79
2022/01/23 00:30:44;;;;;;;;;;;;;;;5.29;100.00;103492.13;5077362;28;19932;-80
2022/01/23 00:33:10;;;;;;;;;;;;;;;5.30;100.00;103498.25;5059561;28;20279;-80
2022/01/23 00:35:37;;;;;;;;;;;;;;;5.28;100.00;103498.09;5073466;28;19927;-80
2022/01/23 00:38:04;;;;;;;;;;;;;;;5.33;100.00;103499.50;5076287;28;19927;-80
2022/01/23 00:40:30;;;;;;;;;;;;;;;5.31;100.00;103506.25;5089731;28;19920;-80
2022/01/23 00:42:58;;;;;;;;;;;;;;;5.34;100.00;103501.31;5095057;28;19916;-80
2022/01/23 00:45:32;;;;;;;;;;;;;;;5.35;100.00;103503.19;5076105;28;19967;-80
2022/01/23 00:48:02;;;;;;;;;;;;;;;5.32;100.00;103487.19;5075987;28;19970;-80
2022/01/23 00:50:29;;;;;;;;;;;;;;;5.36;100.00;103491.03;5087230;28;19932;-81
2022/01/23 00:53:09;;;;;;;;;;;;;;;5.34;100.00;103480.41;5084515;28;19955;-80
2022/01/23 00:55:34;;;;;;;;;;;;;;;5.34;100.00;103480.41;5075668;28;20399;-80
2022/01/23 00:58:00;;;;;;;;;;;;;;;5.35;100.00;103474.44;5075271;28;19921;-80
2022/01/23 01:00:25;;;;;;;;;;;;;;;5.34;100.00;103474.28;5074535;28;19929;-80
2022/01/23 01:02:51;;;;;;;;;;;;;;;5.34;100.00;103472.59;5075072;28;19921;-80
2022/01/23 01:05:17;;;;;;;;;;;;;;;5.35;100.00;103482.28;5075581;28;19917;-80
2022/01/23 01:07:42;;;;;;;;;;;;;;;5.36;100.00;103484.13;5074973;28;19924;-80
2022/01/23 01:10:12;;;;;;;;;;;;;;;5.39;100.00;103476.59;5081670;28;19920;-80
2022/01/23 01:12:44;;;;;;;;;;;;;;;5.36;100.00;103473.69;5086285;28;19932;-81
2022/01/23 01:30:12;;;;;;;;;;;;;;;5.30;100.00;103475.69;5076214;28;19967;-80
2022/01/23 01:31:33;;;;;;;;;;;;;;;5.35;100.00;103494.44;5075864;28;19990;-80
2022/01/23 01:34:07;;;;;;;;;;;;;;;5.34;100.00;103492.56;5092351;28;19920;-80
2022/01/23 01:38:58;;;;;;;;;;;;;;;5.33;100.00;103495.94;5073998;28;19932;-80
2022/01/23 01:41:24;;;;;;;;;;;;;;;5.35;100.00;103494.44;5085896;28;20011;-80
2022/01/23 01:43:52;;;;;;;;;;;;;;;5.36;100.00;103496.25;5094773;28;20391;-80
2022/01/23 01:46:18;;;;;;;;;;;;;;;5.34;100.00;103498.72;5081866;28;20006;-79
2022/01/23 01:48:43;;;;;;;;;;;;;;;5.30;100.00;103500.88;5089854;28;20319;-80
2022/01/23 01:51:13;;;;;;;;;;;;;;;5.34;100.00;103498.72;5094332;28;19927;-79
2022/01/23 01:53:52;;;;;;;;;;;;;;;5.37;100.00;103505.94;5094455;28;20280;-80
2022/01/23 01:56:17;;;;;;;;;;;;;;;5.37;100.00;103505.94;5094090;28;20017;-80
2022/01/23 02:09:17;;;;;;;;;;;;;;;5.32;100.00;103501.97;5074813;28;19974;-80
2022/01/23 02:12:16;;;;;;;;;;;;;;;5.32;100.00;103507.19;5079552;28;19931;-80
2022/01/23 02:17:53;;;;;;;;;;;;;;;5.32;100.00;103499.34;5074397;28;20013;-80
2022/01/23 02:56:00;;;;;;;;;;;;;;;5.33;100.00;103467.19;5074888;28;19982;-79
2022/01/23 02:58:34;;;;;;;;;;;;;;;5.30;100.00;103469.50;5051754;28;20067;-79
2022/01/23 03:01:15;;;;;;;;;;;;;;;5.29;100.00;103462.47;5070465;28;19932;-79
2022/01/23 03:03:47;;;;;;;;;;;;;;;5.32;100.00;103476.75;5036206;28;19920;-79
2022/01/23 03:11:58;;;;;;;;;;;;;;;5.31;100.00;103447.84;5094596;28;19920;-79
2022/01/23 03:30:17;;;;;;;;;;;;;;;5.21;100.00;103474.75;5077947;28;19920;-80
2022/01/23 03:32:39;;;;;;;;;;;;;;;5.23;100.00;103475.84;5073757;28;20349;-81
2022/01/23 03:35:05;;;;;;;;;;;;;;;5.22;100.00;103471.41;5069838;28;19920;-80
2022/01/23 03:37:31;;;;;;;;;;;;;;;5.25;100.00;103475.97;5079876;28;20561;-81
2022/01/23 03:39:56;;;;;;;;;;;;;;;5.27;100.00;103474.47;5080284;28;19970;-80
2022/01/23 03:42:27;;;;;;;;;;;;;;;5.28;100.00;103477.19;5040172;28;20296;-78
2022/01/23 03:47:39;;;;;;;;;;;;;;;5.29;100.00;103476.44;5039774;28;19931;-79
2022/01/23 03:50:11;;;;;;;;;;;;;;;5.30;100.00;103479.97;5078163;28;19969;-78
2022/01/23 03:52:39;;;;;;;;;;;;;;;5.30;100.00;103477.34;5076534;28;19928;-80
2022/01/23 03:55:06;;;;;;;;;;;;;;;5.28;100.00;103487.66;5093372;28;19924;-78
2022/01/23 03:57:31;;;;;;;;;;;;;;;5.27;100.00;103479.69;5085958;28;19928;-78
2022/01/23 03:59:56;;;;;;;;;;;;;;;5.28;100.00;103484.13;5079485;28;19932;-79
2022/01/23 04:02:24;;;;;;;;;;;;;;;5.33;100.00;103489.06;5081263;28;19927;-79
2022/01/23 04:04:49;;;;;;;;;;;;;;;5.34;100.00;103484.75;5080833;28;19970;-81
2022/01/23 04:07:21;;;;;;;;;;;;;;;5.35;100.00;103486.59;5100021;28;19920;-79
2022/01/23 04:09:47;;;;;;;;;;;;;;;5.33;100.00;103486.44;5081868;28;19927;-79
2022/01/23 04:20:22;;;;;;;;;;;;;;;5.38;100.00;103490.41;5077079;28;19982;-78
2022/01/23 04:33:52;;;;;;;;;;;;;;;5.30;100.00;103503.47;5088754;28;19927;-79
2022/01/23 05:01:03;;;;;;;;;;;;;;;5.28;100.00;103500.72;5096965;28;19946;-80
2022/01/23 05:06:22;;;;;;;;;;;;;;;5.28;100.00;103498.09;5088524;28;19967;-81
2022/01/23 05:08:47;;;;;;;;;;;;;;;5.29;100.00;103491.22;5058410;28;19921;-78
2022/01/23 05:11:13;;;;;;;;;;;;;;;5.32;100.00;103497.66;5058373;28;19924;-80
2022/01/23 05:13:40;;;;;;;;;;;;;;;5.26;100.00;103494.44;5057969;28;19956;-79
2022/01/23 05:16:05;;;;;;;;;;;;;;;5.19;100.00;103485.06;5075761;28;19920;-79
2022/01/23 05:18:34;;;;;;;;;;;;;;;5.20;100.00;103492.16;5060984;28;20330;-79
2022/01/23 05:21:12;;;;;;;;;;;;;;;5.18;100.00;103492.75;5078423;28;19921;-80
2022/01/23 05:23:39;;;;;;;;;;;;;;;5.20;100.00;103491.19;5074077;28;19949;-79
2022/01/23 05:26:04;;;;;;;;;;;;;;;5.20;100.00;103489.53;5058373;28;19920;-80
2022/01/23 05:28:30;;;;;;;;;;;;;;;5.15;100.00;103506.41;5057922;28;20390;-79
2022/01/23 05:30:55;;;;;;;;;;;;;;;5.18;100.00;103504.09;5057490;28;19982;-80
2022/01/23 05:33:20;;;;;;;;;;;;;;;5.22;100.00;103498.44;5057815;28;19924;-79
2022/01/23 05:35:45;;;;;;;;;;;;;;;5.14;100.00;103503.66;5074299;28;19967;-80
2022/01/23 05:38:11;;;;;;;;;;;;;;;5.16;100.00;103492.59;5077857;28;19953;-80
2022/01/23 05:40:38;;;;;;;;;;;;;;;5.20;100.00;103485.97;5094555;28;19999;-79
2022/01/23 05:43:07;;;;;;;;;;;;;;;5.18;100.00;103492.75;5095030;28;19955;-80
2022/01/23 05:45:34;;;;;;;;;;;;;;;5.20;100.00;103491.19;5094510;28;19971;-80
2022/01/23 05:48:01;;;;;;;;;;;;;;;5.22;100.00;103489.69;5075500;28;19977;-79
2022/01/23 05:50:26;;;;;;;;;;;;;;;5.18;100.00;103493.66;5074049;28;19928;-80
2022/01/23 05:52:55;;;;;;;;;;;;;;;5.23;100.00;103486.28;5074529;28;19920;-79
2022/01/23 05:55:21;;;;;;;;;;;;;;;5.23;100.00;103491.50;5076696;28;19928;-80
2022/01/23 05:57:46;;;;;;;;;;;;;;;5.27;100.00;103492.75;5090118;28;19921;-80
2022/01/23 06:00:12;;;;;;;;;;;;;;;5.16;100.00;103489.06;5093960;28;19920;-79
2022/01/23 06:02:37;;;;;;;;;;;;;;;5.18;100.00;103490.13;5094407;28;19928;-79
2022/01/23 06:05:03;;;;;;;;;;;;;;;5.17;100.00;103493.50;5083964;28;19921;-79
2022/01/23 06:07:28;;;;;;;;;;;;;;;5.21;100.00;103495.66;5073860;28;19920;-79
2022/01/23 06:09:53;;;;;;;;;;;;;;;5.24;100.00;103492.44;5073909;28;19920;-79
2022/01/23 06:12:19;;;;;;;;;;;;;;;5.26;100.00;103490.91;5085836;28;19920;-79
2022/01/23 06:14:44;;;;;;;;;;;;;;;5.25;100.00;103486.44;5093808;28;19920;-78
2022/01/23 06:17:09;;;;;;;;;;;;;;;5.22;100.00;103487.97;5082245;28;19979;-78
2022/01/23 06:19:36;;;;;;;;;;;;;;;5.15;100.00;103484.59;5077665;28;20280;-79
2022/01/23 06:22:08;;;;;;;;;;;;;;;5.16;100.00;103494.28;5074700;28;19929;-79
2022/01/23 06:24:36;;;;;;;;;;;;;;;5.08;100.00;103495.19;5078481;28;19927;-79
2022/01/23 06:27:02;;;;;;;;;;;;;;;5.07;100.00;103494.28;5076359;28;20018;-79
2022/01/23 06:29:31;;;;;;;;;;;;;;;5.08;100.00;103484.75;5095023;28;20009;-79
2022/01/23 06:32:03;;;;;;;;;;;;;;;5.10;100.00;103496.28;5093954;28;19923;-79
2022/01/23 06:34:29;;;;;;;;;;;;;;;5.11;100.00;103498.13;5093266;28;19920;-79
2022/01/23 06:36:54;;;;;;;;;;;;;;;5.13;100.00;103492.28;5084494;28;20011;-79
2022/01/23 06:39:21;;;;;;;;;;;;;;;5.12;100.00;103499.97;5072398;28;19924;-80
2022/01/23 06:41:46;;;;;;;;;;;;;;;5.12;100.00;103499.97;5092633;28;19927;-79
2022/01/23 06:44:11;;;;;;;;;;;;;;;5.10;100.00;103504.13;5093140;28;19920;-79
2022/01/23 06:46:39;;;;;;;;;;;;;;;5.07;100.00;103509.03;5089440;28;20414;-79
2022/01/23 06:49:05;;;;;;;;;;;;;;;5.00;100.00;103517.91;5075167;28;20333;-78
2022/01/23 06:51:30;;;;;;;;;;;;;;;5.00;100.00;103511.03;5072916;28;19920;-79
2022/01/23 06:53:55;;;;;;;;;;;;;;;4.97;100.00;103513.34;5073562;28;19927;-79
2022/01/23 06:56:21;;;;;;;;;;;;;;;4.94;100.00;103509.47;5073650;28;19921;-79
2022/01/23 06:58:46;;;;;;;;;;;;;;;5.01;100.00;103520.69;5073675;28;19928;-79
2022/01/23 07:01:11;;;;;;;;;;;;;;;5.03;100.00;103520.84;5078654;28;19947;-79
2022/01/23 07:03:43;;;;;;;;;;;;;;;5.04;100.00;103522.69;5073386;28;19924;-79
2022/01/23 07:06:08;;;;;;;;;;;;;;;5.00;100.00;103524.09;5083052;28;20020;-79
2022/01/23 07:08:34;;;;;;;;;;;;;;;5.04;100.00;103525.31;5093387;28;19924;-79
2022/01/23 07:10:59;;;;;;;;;;;;;;;5.05;100.00;103524.56;5093491;28;19928;-79
2022/01/23 07:13:27;;;;;;;;;;;;;;;5.07;100.00;103529.94;5093244;28;19920;-79
2022/01/23 07:15:53;;;;;;;;;;;;;;;5.00;100.00;103518.88;5093490;28;19924;-79
2022/01/23 07:18:18;;;;;;;;;;;;;;;5.08;100.00;103522.25;5092845;28;19950;-79
2022/01/23 07:20:44;;;;;;;;;;;;;;;5.04;100.00;103523.63;5092653;28;20002;-79
2022/01/23 07:23:12;;;;;;;;;;;;;;;4.99;100.00;103534.38;5092468;28;19977;-79
2022/01/23 07:25:37;;;;;;;;;;;;;;;4.96;100.00;103521.91;5089736;28;19916;-80
2022/01/23 07:28:04;;;;;;;;;;;;;;;4.92;100.00;103527.59;5090577;28;19920;-79
2022/01/23 07:30:37;;;;;;;;;;;;;;;4.89;100.00;103531.59;5092728;28;20536;-79
2022/01/23 07:33:04;;;;;;;;;;;;;;;4.88;100.00;103538.50;5075109;28;19924;-79
2022/01/23 07:35:30;;;;;;;;;;;;;;;4.92;100.00;103543.25;5090821;28;19921;-78
2022/01/23 07:37:57;;;;;;;;;;;;;;;5.00;100.00;103546.66;5073291;28;19921;-78
2022/01/23 07:40:22;;;;;;;;;;;;;;;5.03;100.00;103550.53;5069472;28;19924;-80
2022/01/23 07:42:52;;;;;;;;;;;;;;;5.01;100.00;103561.56;5091973;28;19983;-79
2022/01/23 07:45:17;;;;;;;;;;;;;;;4.98;100.00;103563.88;5109634;28;20327;-79
2022/01/23 07:47:42;;;;;;;;;;;;;;;4.98;100.00;103566.47;5076392;28;19917;-79
2022/01/23 07:50:08;;;;;;;;;;;;;;;5.04;100.00;103567.09;5072146;28;19964;-79
2022/01/23 07:52:36;;;;;;;;;;;;;;;5.10;100.00;103569.44;5073607;28;19921;-79
2022/01/23 07:55:05;;;;;;;;;;;;;;;5.16;100.00;103567.44;5072752;28;19917;-79
2022/01/23 07:57:31;;;;;;;;;;;;;;;5.15;100.00;103576.03;5084007;28;20033;-80
2022/01/23 07:59:56;;;;;;;;;;;;;;;5.11;100.00;103573.84;5090670;28;20291;-79
2022/01/23 08:02:23;;;;;;;;;;;;;;;5.13;100.00;103574.97;5080601;28;20451;-78
2022/01/23 08:04:51;;;;;;;;;;;;;;;5.11;100.00;103577.41;5088604;28;19924;-79
2022/01/23 08:09:56;;;;;;;;;;;;;;;5.09;100.00;103570.19;5096567;28;19924;-79
2022/01/23 08:12:30;;;;;;;;;;;;;;;5.09;100.00;103572.78;5085381;28;19928;-77
2022/01/23 08:14:56;;;;;;;;;;;;;;;5.12;100.00;103580.94;5077279;28;19928;-79
2022/01/23 08:17:24;;;;;;;;;;;;;;;5.14;100.00;103571.56;5085896;28;19932;-79
2022/01/23 08:19:57;;;;;;;;;;;;;;;5.03;100.00;103586.13;5075851;28;19959;-79
2022/01/23 08:22:26;;;;;;;;;;;;;;;5.09;100.00;103584.16;5084986;28;19916;-79
2022/01/23 08:24:54;;;;;;;;;;;;;;;5.17;100.00;103577.09;5093436;28;19920;-79
2022/01/23 08:27:19;;;;;;;;;;;;;;;5.21;100.00;103581.88;5087624;28;20397;-81
2022/01/23 08:29:44;;;;;;;;;;;;;;;5.22;100.00;103583.72;5075013;28;19920;-80
2022/01/23 08:32:11;;;;;;;;;;;;;;;5.24;100.00;103582.19;5079340;28;19927;-79
2022/01/23 08:34:37;;;;;;;;;;;;;;;5.27;100.00;103581.59;5075159;28;19982;-79
2022/01/23 08:37:03;;;;;;;;;;;;;;;5.34;100.00;103581.41;5064014;28;19924;-79
2022/01/23 08:39:32;;;;;;;;;;;;;;;5.26;100.00;103580.63;5078179;28;19924;-79
2022/01/23 08:41:59;;;;;;;;;;;;;;;5.18;100.00;103584.19;5090774;28;19924;-79
2022/01/23 08:44:25;;;;;;;;;;;;;;;5.13;100.00;103583.72;5075295;28;19921;-79
2022/01/23 08:46:52;;;;;;;;;;;;;;;5.09;100.00;103588.47;5080054;28;20348;-79
2022/01/23 08:49:19;;;;;;;;;;;;;;;5.15;100.00;103590.00;5068210;28;19924;-79
2022/01/23 08:51:44;;;;;;;;;;;;;;;5.16;100.00;103594.47;5075565;28;20404;-79
2022/01/23 08:54:10;;;;;;;;;;;;;;;5.29;100.00;103586.19;5080294;28;19920;-79
2022/01/23 08:56:35;;;;;;;;;;;;;;;5.33;100.00;103590.97;5094422;28;19920;-79
2022/01/23 08:59:01;;;;;;;;;;;;;;;5.39;100.00;103596.81;5080501;28;19920;-78
2022/01/23 09:01:30;;;;;;;;;;;;;;;5.44;100.00;103585.88;5067889;28;20561;-79
2022/01/23 09:04:00;;;;;;;;;;;;;;;5.47;100.00;103588.78;5066975;28;19924;-79
2022/01/23 09:06:28;;;;;;;;;;;;;;;5.45;100.00;103592.94;5078755;28;20364;-79
2022/01/23 09:08:57;;;;;;;;;;;;;;;5.51;100.00;103588.34;5078864;28;19920;-79
2022/01/23 09:11:56;;;;;;;;;;;;;;;5.57;100.00;103588.97;5075661;28;20391;-79
2022/01/23 09:14:10;;;;;;;;;;;;;;;5.58;100.00;103593.44;5085050;28;19932;-78
2022/01/23 09:16:41;;;;;;;;;;;;;;;5.58;100.00;103593.44;5092096;28;19989;-79
2022/01/23 09:19:10;;;;;;;;;;;;;;;5.54;100.00;103591.28;5061165;28;20042;-79
2022/01/23 09:21:35;;;;;;;;;;;;;;;5.66;100.00;103594.19;5073773;28;19924;-78
2022/01/23 09:24:16;;;;;;;;;;;;;;;;;;;;;
2022/01/23 09:27:03;;;;;;;;;;;;;;;;;;;;;
2022/01/23 09:29:38;;;;;;;;;;;;;;;5.66;100.00;103600.34;5092000;28;19924;-80
2022/01/23 09:32:07;;;;;;;;;;;;;;;5.63;100.00;103600.03;5095097;28;20584;-78
2022/01/23 09:34:33;;;;;;;;;;;;;;;5.73;100.00;103600.19;5059532;28;20360;-78
2022/01/23 09:37:00;;;;;;;;;;;;;;;5.68;100.00;103603.09;5071719;28;19928;-79
2022/01/23 09:39:28;;;;;;;;;;;;;;;5.61;100.00;103609.41;5085959;28;20401;-79
2022/01/23 09:42:13;;;;;;;;;;;;;;;;;;;;;
2022/01/23 09:45:11;;;;;;;;;;;;;;;;;;;;;
2022/01/23 09:47:39;;;;;;;;;;;;;;;5.80;100.00;103611.25;5093084;28;19951;-79
2022/01/23 09:50:07;;;;;;;;;;;;;;;5.83;100.00;103611.56;5083630;28;19928;-79
2022/01/23 09:52:36;;;;;;;;;;;;;;;5.77;100.00;103609.25;5089623;28;19927;-79
2022/01/23 09:55:10;;;;;;;;;;;;;;;5.79;100.00;103610.31;5093939;28;19920;-80
2022/01/23 09:57:40;;;;;;;;;;;;;;;5.91;100.00;103611.53;5091719;28;19920;-78
2022/01/23 10:00:10;;;;;;;;;;;;;;;5.95;100.00;103618.03;5074835;28;19970;-79
2022/01/23 10:02:39;;;;;;;;;;;;;;;5.88;100.00;103621.69;5074816;28;19955;-78
2022/01/23 10:05:14;;;;;;;;;;;;;;;6.01;100.00;103618.66;5091843;28;19957;-79
2022/01/23 10:08:02;;;;;;;;;;;;;;;5.99;100.00;103617.56;5076431;28;19931;-80
2022/01/23 10:10:38;;;;;;;;;;;;;;;6.08;100.00;103615.84;5069248;28;19991;-79
2022/01/23 10:13:06;;;;;;;;;;;;;;;6.05;100.00;103607.72;5092371;28;20351;-79
2022/01/23 10:15:35;;;;;;;;;;;;;;;6.16;100.00;103613.09;5073060;28;20058;-79
2022/01/23 10:18:03;;;;;;;;;;;;;;;6.08;100.00;103618.47;5073359;28;19928;-79
2022/01/23 10:20:41;;;;;;;;;;;;;;;6.14;100.00;103612.94;5054652;28;19921;-78
2022/01/23 10:23:08;;;;;;;;;;;;;;;6.27;100.00;103612.44;5067017;28;19947;-80
2022/01/23 10:25:40;;;;;;;;;;;;;;;6.33;100.00;103607.78;5074530;28;19924;-79
2022/01/23 10:28:17;;;;;;;;;;;;;;;6.32;100.00;103605.03;5073387;28;19920;-79
2022/01/23 10:30:55;;;;;;;;;;;;;;;6.42;100.00;103611.31;5070056;28;19959;-78
2022/01/23 10:33:24;;;;;;;;;;;;;;;6.41;100.00;103604.22;5070219;28;19920;-78
2022/01/23 10:35:56;;;;;;;;;;;;;;;6.47;100.00;103606.53;5051514;28;19953;-78
2022/01/23 10:38:26;;;;;;;;;;;;;;;6.51;100.00;103606.06;5070589;28;20276;-79
2022/01/23 10:41:05;;;;;;;;;;;;;;;6.52;100.00;103609.59;5052799;28;20433;-79
2022/01/23 10:47:16;;;;;;;;;;;;;;;6.55;100.00;103612.50;4998649;28;19921;-79
2022/01/23 10:49:46;;;;;;;;;;;;;;;6.64;100.00;103603.81;5078197;28;19920;-79
2022/01/23 10:52:33;;;;;;;;;;;;;;;6.62;100.00;103605.38;5092636;28;20023;-79
2022/01/23 10:55:04;;;;;;;;;;;;;;;6.67;100.00;103603.22;5090847;28;19927;-78
2022/01/23 10:57:38;;;;;;;;;;;;;;;6.45;100.00;103601.13;5092499;28;19996;-78
2022/01/23 11:00:06;;;;;;;;;;;;;;;6.58;100.00;103597.09;5070064;28;20018;-80
2022/01/23 11:02:38;;;;;;;;;;;;;;;6.67;100.00;103597.06;5093092;28;20007;-80
2022/01/23 11:05:12;;;;;;;;;;;;;;;6.67;100.00;103599.69;5092299;28;19927;-80
2022/01/23 11:07:49;;;;;;;;;;;;;;;6.58;100.00;103603.22;5093401;28;19924;-80
2022/01/23 11:10:16;;;;;;;;;;;;;;;6.58;100.00;103599.69;5074327;28;19920;-78
2022/01/23 11:18:12;;;;;;;;;;;;;;;6.63;100.00;103585.34;5057588;28;19936;-79
2022/01/23 11:20:44;;;;;;;;;;;;;;;6.68;100.00;103594.59;5083333;28;19920;-79
2022/01/23 11:23:30;;;;;;;;;;;;;;;6.71;100.00;103581.78;5092467;28;19924;-79
2022/01/23 11:25:59;;;;;;;;;;;;;;;6.71;100.00;103576.56;5089155;28;19920;-80
2022/01/23 11:28:39;;;;;;;;;;;;;;;6.74;100.00;103576.84;5067466;28;19920;-79
2022/01/23 11:31:11;;;;;;;;;;;;;;;6.78;100.00;103576.34;5086826;28;19927;-80
2022/01/23 11:33:38;;;;;;;;;;;;;;;6.76;100.00;103582.22;5091591;28;19948;-80
2022/01/23 11:36:08;;;;;;;;;;;;;;;6.75;100.00;103576.03;5089216;28;19921;-79
2022/01/23 11:38:42;;;;;;;;;;;;;;;6.89;100.00;103576.44;5093989;28;19927;-80
2022/01/23 11:55:32;;;;;;;;;;;;;;;7.17;100.00;103562.50;5097291;28;20051;-79
2022/01/23 11:57:58;;;;;;;;;;;;;;;7.22;100.00;103564.66;5072367;28;19924;-80
2022/01/23 12:00:28;;;;;;;;;;;;;;;7.06;100.00;103557.97;5060284;28;19972;-79
2022/01/23 12:03:13;;;;;;;;;;;;;;;7.21;100.00;103554.94;5059460;28;19920;-80
2022/01/23 12:05:42;;;;;;;;;;;;;;;7.11;100.00;103556.69;5046095;28;20367;-81
2022/01/23 12:08:29;;;;;;;;;;;;;;;7.13;100.00;103547.31;5065195;28;19920;-80
2022/01/23 12:11:16;;;;;;;;;;;;;;;7.23;100.00;103550.78;5096336;28;19958;-79
2022/01/23 12:19:22;;;;;;;;;;;;;;;7.25;100.00;103551.84;5042202;28;19932;-80
2022/01/23 12:21:52;;;;;;;;;;;;;;;7.24;100.00;103549.97;5063811;28;19969;-80
2022/01/23 12:24:24;;;;;;;;;;;;;;;7.37;100.00;103543.41;5077883;28;19966;-78
2022/01/23 12:27:10;;;;;;;;;;;;;;;7.35;100.00;103544.06;5095184;28;19920;-79
2022/01/23 12:29:42;;;;;;;;;;;;;;;7.41;100.00;103544.63;5060139;28;19955;-82
2022/01/23 12:32:37;;;;;;;;;;;;;;;7.25;100.00;103543.97;5077009;28;20237;-81
2022/01/23 12:35:04;;;;;;;;;;;;;;;7.22;100.00;103539.34;5084848;28;19923;-84
2022/01/23 12:37:48;;;;;;;;;;;;;;;7.19;100.00;103539.06;5079598;28;19928;-83
2022/01/23 12:40:33;;;;;;;;;;;;;;;7.17;100.00;103536.31;5088170;28;20276;-82
2022/01/23 12:43:15;;;;;;;;;;;;;;;7.26;100.00;103536.25;5092731;28;19920;-81
2022/01/23 12:46:00;;;;;;;;;;;;;;;7.17;100.00;103523.22;5093999;28;19920;-82
2022/01/23 12:48:29;;;;;;;;;;;;;;;7.16;100.00;103530.94;5062682;28;20016;-82
2022/01/23 12:51:17;;;;;;;;;;;;;;;7.11;100.00;103533.13;5084481;28;19989;-82
2022/01/23 12:53:46;;;;;;;;;;;;;;;7.17;100.00;103525.81;5069865;28;20184;-83
2022/01/23 12:56:13;;;;;;;;;;;;;;;7.15;100.00;103527.41;5087474;28;19920;-84
2022/01/23 12:58:41;;;;;;;;;;;;;;;7.17;100.00;103523.22;5094842;28;19928;-83
2022/01/23 13:01:08;;;;;;;;;;;;;;;7.21;100.00;103529.69;5091037;28;19920;-83
2022/01/23 13:03:37;;;;;;;;;;;;;;;7.23;100.00;103529.81;5095282;28;20313;-82
2022/01/23 13:06:06;;;;;;;;;;;;;;;7.18;100.00;103535.53;5092999;28;19926;-83
2022/01/23 13:08:48;;;;;;;;;;;;;;;7.25;100.00;103528.25;5074253;28;19939;-83
2022/01/23 13:11:51;;;;;;;;;;;;;;;7.10;100.00;103530.34;5076126;28;19927;-83
2022/01/23 13:14:04;;;;;;;;;;;;;;;7.21;100.00;103537.53;5076485;28;19920;-82
2022/01/23 13:16:39;;;;;;;;;;;;;;;7.09;100.00;103528.53;5074577;28;19944;-84
2022/01/23 13:27:54;;;;;;;;;;;;;;;7.11;100.00;103534.84;5083802;28;19985;-82
2022/01/23 13:33:14;;;;;;;;;;;;;;;7.01;100.00;103527.81;5061906;28;20331;-85
2022/01/23 13:35:42;;;;;;;;;;;;;;;7.07;100.00;103528.41;5073804;28;19925;-84
2022/01/23 13:38:13;;;;;;;;;;;;;;;7.10;100.00;103527.75;5077776;28;20066;-84
2022/01/23 13:40:42;;;;;;;;;;;;;;;7.10;100.00;103519.88;5074219;28;19924;-84
2022/01/23 13:51:33;;;;;;;;;;;;;;;7.16;100.00;103512.59;5075048;28;19931;-82
2022/01/23 13:59:42;;;;;;;;;;;;;;;7.05;100.00;103514.22;5090783;28;20426;-83
2022/01/23 14:02:30;;;;;;;;;;;;;;;7.03;100.00;103521.00;5079442;28;19920;-84
2022/01/23 14:05:08;;;;;;;;;;;;;;;6.98;100.00;103509.19;5095424;28;20015;-84
2022/01/23 14:07:34;;;;;;;;;;;;;;;6.97;100.00;103520.44;5092562;28;20015;-84
2022/01/23 14:10:09;;;;;;;;;;;;;;;7.00;100.00;103511.16;5087793;28;19963;-85
2022/01/23 14:12:37;;;;;;;;;;;;;;;6.93;100.00;103510.44;5093743;28;19970;-85
2022/01/23 14:15:07;;;;;;;;;;;;;;;6.90;100.00;103508.47;5092454;28;19927;-85
2022/01/23 14:17:39;;;;;;;;;;;;;;;6.91;100.00;103505.06;5088026;28;19916;-84
2022/01/23 14:20:09;;;;;;;;;;;;;;;6.82;100.00;103505.16;5077998;28;19920;-83
2022/01/23 14:22:38;;;;;;;;;;;;;;;6.80;100.00;103497.91;5086746;28;19958;-84
2022/01/23 14:25:09;;;;;;;;;;;;;;;6.79;100.00;103503.91;5091337;28;20425;-83
2022/01/23 14:27:34;;;;;;;;;;;;;;;6.79;100.00;103502.25;5073029;28;20046;-85
2022/01/23 14:30:02;;;;;;;;;;;;;;;6.80;100.00;103501.44;5075155;28;19958;-84
2022/01/23 14:32:42;;;;;;;;;;;;;;;6.77;100.00;103506.38;5087001;28;19948;-83
2022/01/23 14:35:08;;;;;;;;;;;;;;;6.89;100.00;103503.09;5074263;28;19924;-84
2022/01/23 14:37:33;;;;;;;;;;;;;;;6.76;100.00;103499.34;5076992;28;19932;-86
2022/01/23 14:40:13;;;;;;;;;;;;;;;6.85;100.00;103508.81;5084081;28;20326;-84
2022/01/23 14:42:41;;;;;;;;;;;;;;;6.71;100.00;103499.66;5074067;28;20011;-84
2022/01/23 14:45:10;;;;;;;;;;;;;;;6.65;100.00;103505.25;5076017;28;20015;-84
2022/01/23 14:47:41;;;;;;;;;;;;;;;6.62;100.00;103511.13;5074988;28;20002;-84
2022/01/23 14:50:10;;;;;;;;;;;;;;;6.55;100.00;103524.41;5074122;28;19920;-84
2022/01/23 14:52:45;;;;;;;;;;;;;;;6.56;100.00;103513.16;5094550;28;20003;-84
2022/01/23 14:55:10;;;;;;;;;;;;;;;6.55;100.00;103508.69;5093179;28;19969;-83
2022/01/23 14:57:35;;;;;;;;;;;;;;;6.54;100.00;103508.53;5073600;28;19924;-83
2022/01/23 15:00:05;;;;;;;;;;;;;;;6.54;100.00;103504.25;5073589;28;19924;-83
2022/01/23 15:02:32;;;;;;;;;;;;;;;6.46;100.00;103503.53;5092821;28;20431;-85
2022/01/23 15:05:03;;;;;;;;;;;;;;;6.51;100.00;103500.41;5088497;28;19939;-84
2022/01/23 15:07:35;;;;;;;;;;;;;;;6.41;100.00;103502.13;5073678;28;19924;-83
2022/01/23 15:10:00;;;;;;;;;;;;;;;6.41;100.00;103499.53;5075603;28;19924;-81
2022/01/23 15:12:26;;;;;;;;;;;;;;;6.41;100.00;103501.22;5083225;28;20367;-85
2022/01/23 15:14:52;;;;;;;;;;;;;;;6.38;100.00;103496.59;5093112;28;19928;-84
2022/01/23 15:17:20;;;;;;;;;;;;;;;6.36;100.00;103494.63;5077918;28;19924;-84
2022/01/23 15:19:45;;;;;;;;;;;;;;;6.39;100.00;103495.84;5079494;28;20350;-86
2022/01/23 15:22:14;;;;;;;;;;;;;;;6.36;100.00;103492.94;5091304;28;19921;-85
2022/01/23 15:24:39;;;;;;;;;;;;;;;6.33;100.00;103495.25;5079771;28;20380;-84
2022/01/23 15:27:04;;;;;;;;;;;;;;;6.32;100.00;103493.41;5077961;28;19927;-84
2022/01/23 15:29:35;;;;;;;;;;;;;;;6.26;100.00;103496.38;5077987;28;19924;-83
2022/01/23 15:32:08;;;;;;;;;;;;;;;6.33;100.00;103494.34;5096909;28;19927;-81
2022/01/23 15:34:35;;;;;;;;;;;;;;;6.24;100.00;103497.91;5087699;28;19966;-82
2022/01/23 15:37:03;;;;;;;;;;;;;;;6.21;100.00;103499.31;5095470;28;20380;-81
2022/01/23 15:39:29;;;;;;;;;;;;;;;6.20;100.00;103497.47;5097983;28;19977;-83
2022/01/23 15:41:56;;;;;;;;;;;;;;;6.16;100.00;103492.72;5080161;28;19920;-81
2022/01/23 15:44:38;;;;;;;;;;;;;;;6.15;100.00;103496.09;5085883;28;19921;-81
2022/01/23 15:47:04;;;;;;;;;;;;;;;6.17;100.00;103492.88;5094686;28;19962;-82
2022/01/23 15:49:30;;;;;;;;;;;;;;;6.18;100.00;103493.78;5094636;28;19955;-81
2022/01/23 15:52:02;;;;;;;;;;;;;;;6.11;100.00;103498.44;5092191;28;20011;-84
2022/01/23 15:54:29;;;;;;;;;;;;;;;6.07;100.00;103490.13;5098290;28;20386;-84
2022/01/23 15:56:55;;;;;;;;;;;;;;;6.07;100.00;103491.03;5081585;28;19925;-84
2022/01/23 15:59:20;;;;;;;;;;;;;;;6.09;100.00;103488.56;5079486;28;19927;-85
2022/01/23 16:01:48;;;;;;;;;;;;;;;6.05;100.00;103492.59;5094065;28;19920;-83
2022/01/23 16:04:14;;;;;;;;;;;;;;;6.03;100.00;103495.84;5100880;28;19928;-83
2022/01/23 16:06:40;;;;;;;;;;;;;;;5.99;100.00;103497.25;5098454;28;19924;-83
2022/01/23 16:09:05;;;;;;;;;;;;;;;6.02;100.00;103502.78;5098356;28;19920;-83
2022/01/23 16:11:30;;;;;;;;;;;;;;;6.03;100.00;103501.06;5084696;28;19921;-83
2022/01/23 16:13:56;;;;;;;;;;;;;;;6.03;100.00;103498.44;5077243;28;19921;-83